Time,TemperatureF,DewpointF,PressureIn,WindDirection,WindDirectionDegrees,WindSpeedMPH,WindSpeedGustMPH,Humidity,HourlyPrecipIn,Conditions,Clouds,dailyrainin,SoftwareType,DateUTC
2013-09-20 00:04:00,55.9,39.5,29.91,South,180,2.5,2.5,54,0.00,,---,0.00,VWS V14.01,2013-09-20 07:04:00,
2013-09-20 00:09:00,55.8,39.8,29.91,South,180,0.0,0.0,55,0.00,,---,0.00,VWS V14.01,2013-09-20 07:09:00,
2013-09-20 00:14:00,55.8,39.4,29.94,East,90,1.6,1.6,54,0.00,,---,0.00,VWS V14.01,2013-09-20 07:14:00,
2013-09-20 00:19:00,55.6,39.2,29.94,SSW,202,2.7,2.7,54,0.00,,---,0.00,VWS V14.01,2013-09-20 07:19:00,
2013-09-20 00:24:00,55.6,39.7,29.94,SSE,158,1.1,1.1,55,0.00,,---,0.00,VWS V14.01,2013-09-20 07:24:00,
2013-09-20 00:29:00,55.4,39.5,29.94,SSE,158,1.3,1.3,55,0.00,,---,0.00,VWS V14.01,2013-09-20 07:29:00,
2013-09-20 00:34:00,55.2,39.8,29.94,SSE,158,1.1,1.1,56,0.00,,---,0.00,VWS V14.01,2013-09-20 07:34:00,
2013-09-20 00:39:00,55.0,40.1,29.94,SE,135,1.3,1.3,57,0.00,,---,0.00,VWS V14.01,2013-09-20 07:39:00,
2013-09-20 00:44:00,55.2,40.3,29.94,SSE,158,2.5,2.5,57,0.00,,---,0.00,VWS V14.01,2013-09-20 07:44:00,
2013-09-20 00:49:00,55.0,40.5,29.94,ESE,112,3.1,3.1,58,0.00,,---,0.00,VWS V14.01,2013-09-20 07:49:00,
2013-09-20 00:54:00,54.9,39.9,29.94,SSE,158,3.4,3.4,57,0.00,,---,0.00,VWS V14.01,2013-09-20 07:54:00,
2013-09-20 00:59:00,55.0,41.0,29.94,East,90,3.6,3.6,59,0.00,,---,0.00,VWS V14.01,2013-09-20 07:59:00,
2013-09-20 01:04:00,55.0,40.5,29.94,East,90,2.7,2.7,58,0.00,,---,0.00,VWS V14.01,2013-09-20 08:04:00,
2013-09-20 01:09:00,54.9,40.8,29.94,SSE,158,3.6,3.6,59,0.00,,---,0.00,VWS V14.01,2013-09-20 08:09:00,
2013-09-20 01:14:00,54.9,40.8,29.94,SSE,158,3.1,3.1,59,0.00,,---,0.00,VWS V14.01,2013-09-20 08:14:00,
2013-09-20 01:19:00,54.9,40.8,29.94,SSE,158,3.1,3.1,59,0.00,,---,0.00,VWS V14.01,2013-09-20 08:19:00,
2013-09-20 01:24:00,54.9,40.8,29.94,SE,135,2.0,2.0,59,0.00,,---,0.00,VWS V14.01,2013-09-20 08:24:00,
2013-09-20 01:29:00,54.7,40.7,29.91,ESE,112,3.8,3.8,59,0.00,,---,0.00,VWS V14.01,2013-09-20 08:29:00,
2013-09-20 01:34:00,54.7,40.7,29.91,East,90,3.4,3.4,59,0.00,,---,0.00,VWS V14.01,2013-09-20 08:34:00,
2013-09-20 01:39:00,54.5,40.9,29.91,NNE,22,3.1,3.1,60,0.00,,---,0.00,VWS V14.01,2013-09-20 08:39:00,
2013-09-20 01:44:00,54.3,40.8,29.91,ESE,112,2.5,2.5,60,0.00,,---,0.00,VWS V14.01,2013-09-20 08:44:00,
2013-09-20 01:49:00,54.5,40.9,29.91,South,180,4.0,4.0,60,0.00,,---,0.00,VWS V14.01,2013-09-20 08:49:00,
2013-09-20 01:54:00,54.3,41.2,29.91,SE,135,2.2,2.2,61,0.00,,---,0.00,VWS V14.01,2013-09-20 08:54:00,
2013-09-20 01:59:00,54.3,41.2,29.91,SSE,158,2.9,2.9,61,0.00,,---,0.00,VWS V14.01,2013-09-20 08:59:00,
2013-09-20 02:04:00,54.1,41.4,29.91,SE,135,4.0,4.0,62,0.00,,---,0.00,VWS V14.01,2013-09-20 09:04:00,
2013-09-20 02:09:00,54.3,41.6,29.91,East,90,3.1,3.1,62,0.00,,---,0.00,VWS V14.01,2013-09-20 09:09:00,
2013-09-20 02:14:00,54.3,42.0,29.91,SSE,158,3.4,3.4,63,0.00,,---,0.00,VWS V14.01,2013-09-20 09:14:00,
2013-09-20 02:19:00,54.3,41.6,29.91,SE,135,1.1,1.1,62,0.00,,---,0.00,VWS V14.01,2013-09-20 09:19:00,
2013-09-20 02:24:00,54.0,40.8,29.91,ESE,112,3.1,3.1,61,0.00,,---,0.00,VWS V14.01,2013-09-20 09:24:00,
2013-09-20 02:29:00,54.0,41.2,29.88,ESE,112,2.0,2.0,62,0.00,,---,0.00,VWS V14.01,2013-09-20 09:29:00,
2013-09-20 02:34:00,54.0,41.7,29.88,ENE,68,4.3,4.3,63,0.00,,---,0.00,VWS V14.01,2013-09-20 09:34:00,
2013-09-20 02:39:00,54.0,41.7,29.88,ESE,112,2.0,2.0,63,0.00,,---,0.00,VWS V14.01,2013-09-20 09:39:00,
2013-09-20 02:44:00,53.8,41.1,29.88,South,180,1.6,1.6,62,0.00,,---,0.00,VWS V14.01,2013-09-20 09:44:00,
2013-09-20 02:49:00,53.6,41.7,29.88,ENE,68,4.0,4.0,64,0.00,,---,0.00,VWS V14.01,2013-09-20 09:49:00,
2013-09-20 02:54:00,53.8,41.9,29.88,South,180,6.0,6.0,64,0.00,,---,0.00,VWS V14.01,2013-09-20 09:54:00,
2013-09-20 02:59:00,53.8,41.5,29.88,SW,225,2.0,2.0,63,0.00,,---,0.00,VWS V14.01,2013-09-20 09:59:00,
2013-09-20 03:04:00,53.8,41.9,29.88,ESE,112,6.5,6.5,64,0.00,,---,0.00,VWS V14.01,2013-09-20 10:04:00,
2013-09-20 03:09:00,53.8,41.5,29.88,SE,135,4.7,4.7,63,0.00,,---,0.00,VWS V14.01,2013-09-20 10:09:00,
2013-09-20 03:15:00,53.6,41.7,29.88,ESE,112,2.2,2.2,64,0.00,,---,0.00,VWS V14.01,2013-09-20 10:15:00,
2013-09-20 03:20:00,53.4,41.6,29.88,SE,135,4.3,4.3,64,0.00,,---,0.00,VWS V14.01,2013-09-20 10:20:00,
2013-09-20 03:25:00,53.4,42.0,29.88,East,90,2.9,2.9,65,0.00,,---,0.00,VWS V14.01,2013-09-20 10:25:00,
2013-09-20 03:30:00,53.4,42.0,29.88,South,180,2.7,2.7,65,0.00,,---,0.00,VWS V14.01,2013-09-20 10:30:00,
2013-09-20 03:35:00,53.2,42.2,29.88,East,90,3.1,3.1,66,0.00,,---,0.00,VWS V14.01,2013-09-20 10:35:00,
2013-09-20 03:40:00,53.1,42.0,29.88,SE,135,2.9,2.9,66,0.00,,---,0.00,VWS V14.01,2013-09-20 10:40:00,
2013-09-20 03:45:00,53.1,41.6,29.88,East,90,2.5,2.5,65,0.00,,---,0.00,VWS V14.01,2013-09-20 10:45:00,
2013-09-20 03:50:00,52.9,41.8,29.88,West,270,3.4,3.4,66,0.00,,---,0.00,VWS V14.01,2013-09-20 10:50:00,
2013-09-20 03:55:00,52.7,41.7,29.88,SSW,202,2.9,2.9,66,0.00,,---,0.00,VWS V14.01,2013-09-20 10:55:00,
2013-09-20 04:00:00,52.7,42.1,29.88,ENE,68,3.6,3.6,67,0.00,,---,0.00,VWS V14.01,2013-09-20 11:00:00,
2013-09-20 04:05:00,52.7,42.1,29.88,SW,225,2.9,2.9,67,0.00,,---,0.00,VWS V14.01,2013-09-20 11:05:00,
2013-09-20 04:10:00,52.7,41.7,29.88,ESE,112,2.7,2.7,66,0.00,,---,0.00,VWS V14.01,2013-09-20 11:10:00,
2013-09-20 04:15:00,52.5,41.5,29.88,NNE,22,2.7,2.7,66,0.00,,---,0.00,VWS V14.01,2013-09-20 11:15:00,
2013-09-20 04:20:00,52.3,41.7,29.88,SE,135,2.5,2.5,67,0.00,,---,0.00,VWS V14.01,2013-09-20 11:20:00,
2013-09-20 04:25:00,52.3,41.7,29.88,South,180,3.4,3.4,67,0.00,,---,0.00,VWS V14.01,2013-09-20 11:25:00,
2013-09-20 04:30:00,52.3,41.7,29.88,South,180,5.6,5.6,67,0.00,,---,0.00,VWS V14.01,2013-09-20 11:30:00,
2013-09-20 04:35:00,52.3,41.7,29.88,ENE,68,2.5,2.5,67,0.00,,---,0.00,VWS V14.01,2013-09-20 11:35:00,
2013-09-20 04:40:00,52.3,41.7,29.88,South,180,1.3,1.3,67,0.00,,---,0.00,VWS V14.01,2013-09-20 11:40:00,
2013-09-20 04:45:00,52.2,41.5,29.88,ESE,112,4.3,4.3,67,0.00,,---,0.00,VWS V14.01,2013-09-20 11:45:00,
2013-09-20 04:50:00,52.2,41.5,29.88,ESE,112,3.1,3.1,67,0.00,,---,0.00,VWS V14.01,2013-09-20 11:50:00,
2013-09-20 04:55:00,52.2,41.9,29.88,SE,135,5.6,5.6,68,0.00,,---,0.00,VWS V14.01,2013-09-20 11:55:00,
2013-09-20 05:00:00,52.2,41.9,29.88,East,90,4.0,4.0,68,0.00,,---,0.00,VWS V14.01,2013-09-20 12:00:00,
2013-09-20 05:05:00,52.3,42.1,29.88,East,90,3.8,3.8,68,0.00,,---,0.00,VWS V14.01,2013-09-20 12:05:00,
2013-09-20 05:10:00,52.3,42.1,29.88,SSE,158,3.8,3.8,68,0.00,,---,0.00,VWS V14.01,2013-09-20 12:10:00,
2013-09-20 05:15:00,52.3,42.1,29.88,SSW,202,4.3,4.3,68,0.00,,---,0.00,VWS V14.01,2013-09-20 12:15:00,
2013-09-20 05:20:00,52.0,41.8,29.88,SSE,158,3.6,3.6,68,0.00,,---,0.00,VWS V14.01,2013-09-20 12:20:00,
2013-09-20 05:25:00,51.8,41.2,29.88,NNE,22,1.3,1.3,67,0.00,,---,0.00,VWS V14.01,2013-09-20 12:25:00,
2013-09-20 05:30:00,51.8,41.2,29.88,ESE,112,0.9,0.9,67,0.00,,---,0.00,VWS V14.01,2013-09-20 12:30:00,
2013-09-20 05:35:00,50.7,40.6,29.88,ESE,112,1.6,1.6,68,0.00,,---,0.00,VWS V14.01,2013-09-20 12:35:00,
2013-09-20 05:40:00,50.7,40.6,29.88,ESE,112,1.1,1.1,68,0.00,,---,0.00,VWS V14.01,2013-09-20 12:40:00,
2013-09-20 05:45:00,50.5,40.8,29.85,SSE,158,3.4,3.4,69,0.00,,---,0.00,VWS V14.01,2013-09-20 12:45:00,
2013-09-20 05:50:00,50.5,40.8,29.85,SE,135,4.0,4.0,69,0.00,,---,0.00,VWS V14.01,2013-09-20 12:50:00,
2013-09-20 05:55:00,50.5,40.8,29.85,SSE,158,3.8,3.8,69,0.00,,---,0.00,VWS V14.01,2013-09-20 12:55:00,
2013-09-20 06:00:00,50.9,41.5,29.85,North,0,1.1,1.1,70,0.00,,---,0.00,VWS V14.01,2013-09-20 13:00:00,
2013-09-20 06:05:00,50.9,41.5,29.85,East,90,0.0,0.0,70,0.00,,---,0.00,VWS V14.01,2013-09-20 13:05:00,
2013-09-20 06:10:00,50.2,40.4,29.85,SE,135,1.3,1.3,69,0.00,,---,0.00,VWS V14.01,2013-09-20 13:10:00,
2013-09-20 06:15:00,50.2,40.4,29.85,SE,135,0.0,0.0,69,0.00,,---,0.00,VWS V14.01,2013-09-20 13:15:00,
2013-09-20 06:20:00,49.6,40.3,29.85,ESE,112,0.0,0.0,70,0.00,,---,0.00,VWS V14.01,2013-09-20 13:20:00,
2013-09-20 06:25:00,49.1,40.1,29.85,East,90,2.0,2.0,71,0.00,,---,0.00,VWS V14.01,2013-09-20 13:25:00,
2013-09-20 06:30:00,49.1,40.1,29.85,ESE,112,0.0,0.0,71,0.00,,---,0.00,VWS V14.01,2013-09-20 13:30:00,
2013-09-20 06:35:00,49.1,40.1,29.85,ENE,68,1.1,1.1,71,0.00,,---,0.00,VWS V14.01,2013-09-20 13:35:00,
2013-09-20 06:40:00,49.1,40.1,29.85,East,90,2.9,2.9,71,0.00,,---,0.00,VWS V14.01,2013-09-20 13:40:00,
2013-09-20 06:45:00,49.1,40.1,29.85,NE,45,1.1,1.1,71,0.00,,---,0.00,VWS V14.01,2013-09-20 13:45:00,
2013-09-20 06:50:00,49.8,42.2,29.85,ESE,112,2.2,2.2,75,0.00,,---,0.00,VWS V14.01,2013-09-20 13:50:00,
2013-09-20 06:55:00,50.7,43.1,29.85,NE,45,3.4,3.4,75,0.00,,---,0.00,VWS V14.01,2013-09-20 13:55:00,
2013-09-20 07:00:00,50.7,43.1,29.85,East,90,2.5,2.5,75,0.00,,---,0.00,VWS V14.01,2013-09-20 14:00:00,
2013-09-20 07:05:00,50.7,43.1,29.85,NE,45,4.5,4.5,75,0.00,,---,0.00,VWS V14.01,2013-09-20 14:05:00,
2013-09-20 07:10:00,51.4,42.7,29.85,East,90,2.9,2.9,72,0.00,,---,0.00,VWS V14.01,2013-09-20 14:10:00,
2013-09-20 07:16:00,51.4,42.7,29.85,ESE,112,4.0,4.0,72,0.00,,---,0.00,VWS V14.01,2013-09-20 14:16:00,
2013-09-20 07:21:00,51.8,42.3,29.85,SE,135,3.4,3.4,70,0.00,,---,0.00,VWS V14.01,2013-09-20 14:21:00,
2013-09-20 07:26:00,52.0,42.5,29.85,ENE,68,5.6,5.6,70,0.00,,---,0.00,VWS V14.01,2013-09-20 14:26:00,
2013-09-20 07:31:00,52.0,42.5,29.85,SE,135,2.5,2.5,70,0.00,,---,0.00,VWS V14.01,2013-09-20 14:31:00,
2013-09-20 07:36:00,52.2,42.3,29.85,ESE,112,2.5,2.5,69,0.00,,---,0.00,VWS V14.01,2013-09-20 14:36:00,
2013-09-20 07:41:00,52.9,42.6,29.85,SE,135,2.7,2.7,68,0.00,,---,0.00,VWS V14.01,2013-09-20 14:41:00,
2013-09-20 07:46:00,53.6,42.9,29.85,SSE,158,3.4,3.4,67,0.00,,---,0.00,VWS V14.01,2013-09-20 14:46:00,
2013-09-20 07:51:00,55.2,43.7,29.85,North,0,5.6,5.6,65,0.00,,---,0.00,VWS V14.01,2013-09-20 14:51:00,
2013-09-20 07:56:00,56.5,43.6,29.82,North,0,0.9,0.9,62,0.00,,---,0.00,VWS V14.01,2013-09-20 14:56:00,
2013-09-20 08:01:00,57.4,43.2,29.82,East,90,2.7,2.7,59,0.00,,---,0.00,VWS V14.01,2013-09-20 15:01:00,
2013-09-20 08:06:00,57.4,43.2,29.82,ESE,112,3.6,3.6,59,0.00,,---,0.00,VWS V14.01,2013-09-20 15:06:00,
2013-09-20 08:11:00,58.8,42.7,29.82,South,180,3.6,3.6,55,0.00,,---,0.00,VWS V14.01,2013-09-20 15:11:00,
2013-09-20 08:16:00,58.8,42.7,29.79,SE,135,5.8,5.8,55,0.00,,---,0.00,VWS V14.01,2013-09-20 15:16:00,
2013-09-20 08:21:00,58.8,42.7,29.79,East,90,3.6,3.6,55,0.00,,---,0.00,VWS V14.01,2013-09-20 15:21:00,
2013-09-20 08:26:00,58.8,42.7,29.79,East,90,3.4,3.4,55,0.00,,---,0.00,VWS V14.01,2013-09-20 15:26:00,
2013-09-20 08:31:00,58.8,42.7,29.82,South,180,5.4,5.4,55,0.00,,---,0.00,VWS V14.01,2013-09-20 15:31:00,
2013-09-20 08:36:00,58.8,42.7,29.82,ESE,112,4.3,4.3,55,0.00,,---,0.00,VWS V14.01,2013-09-20 15:36:00,
2013-09-20 08:41:00,61.3,42.6,29.82,East,90,5.4,5.4,50,0.00,,---,0.00,VWS V14.01,2013-09-20 15:41:00,
2013-09-20 08:46:00,61.5,41.7,29.82,SE,135,4.0,4.0,48,0.00,,---,0.00,VWS V14.01,2013-09-20 15:46:00,
2013-09-20 08:51:00,61.5,41.7,29.82,ESE,112,2.9,2.9,48,0.00,,---,0.00,VWS V14.01,2013-09-20 15:51:00,
2013-09-20 08:56:00,61.5,41.7,29.82,North,0,6.5,6.5,48,0.00,,---,0.00,VWS V14.01,2013-09-20 15:56:00,
2013-09-20 09:01:00,61.5,41.7,29.82,East,90,3.1,3.1,48,0.00,,---,0.00,VWS V14.01,2013-09-20 16:01:00,
2013-09-20 09:06:00,62.2,41.2,29.82,East,90,2.5,2.5,46,0.00,,---,0.00,VWS V14.01,2013-09-20 16:06:00,
2013-09-20 09:11:00,62.4,41.4,29.82,SE,135,6.5,6.5,46,0.00,,---,0.00,VWS V14.01,2013-09-20 16:11:00,
2013-09-20 09:16:00,62.8,41.2,29.82,SE,135,6.3,6.3,45,0.00,,---,0.00,VWS V14.01,2013-09-20 16:16:00,
2013-09-20 09:21:00,62.8,41.2,29.82,ESE,112,6.9,6.9,45,0.00,,---,0.00,VWS V14.01,2013-09-20 16:21:00,
2013-09-20 09:26:00,63.9,41.5,29.82,East,90,3.1,3.1,44,0.00,,---,0.00,VWS V14.01,2013-09-20 16:26:00,
2013-09-20 09:31:00,64.0,41.7,29.85,South,180,2.9,2.9,44,0.00,,---,0.00,VWS V14.01,2013-09-20 16:31:00,
2013-09-20 09:36:00,65.1,42.1,29.85,East,90,4.9,4.9,43,0.00,,---,0.00,VWS V14.01,2013-09-20 16:36:00,
2013-09-20 09:41:00,65.1,42.1,29.85,SE,135,3.4,3.4,43,0.00,,---,0.00,VWS V14.01,2013-09-20 16:41:00,
2013-09-20 09:46:00,66.2,41.2,29.85,East,90,6.0,6.0,40,0.00,,---,0.00,VWS V14.01,2013-09-20 16:46:00,
2013-09-20 09:51:00,66.2,41.2,29.82,East,90,4.0,4.0,40,0.00,,---,0.00,VWS V14.01,2013-09-20 16:51:00,
2013-09-20 09:56:00,66.2,41.2,29.82,East,90,3.4,3.4,40,0.00,,---,0.00,VWS V14.01,2013-09-20 16:56:00,
2013-09-20 10:01:00,67.1,40.7,29.82,East,90,4.0,4.0,38,0.00,,---,0.00,VWS V14.01,2013-09-20 17:01:00,
2013-09-20 10:06:00,67.1,40.7,29.82,ESE,112,3.1,3.1,38,0.00,,---,0.00,VWS V14.01,2013-09-20 17:06:00,
2013-09-20 10:11:00,67.1,40.7,29.82,SE,135,2.2,2.2,38,0.00,,---,0.00,VWS V14.01,2013-09-20 17:11:00,
2013-09-20 10:16:00,67.1,40.7,29.76,East,90,3.8,3.8,38,0.00,,---,0.00,VWS V14.01,2013-09-20 17:16:00,
2013-09-20 10:21:00,69.8,41.7,29.76,SE,135,2.0,2.0,36,0.00,,---,0.00,VWS V14.01,2013-09-20 17:21:00,
2013-09-20 10:26:00,69.8,41.7,29.76,East,90,2.2,2.2,36,0.00,,---,0.00,VWS V14.01,2013-09-20 17:26:00,
2013-09-20 10:31:00,71.1,41.3,29.74,East,90,2.9,2.9,34,0.00,,---,0.00,VWS V14.01,2013-09-20 17:31:00,
2013-09-20 10:36:00,71.1,41.3,29.74,East,90,7.2,7.2,34,0.00,,---,0.00,VWS V14.01,2013-09-20 17:36:00,
2013-09-20 10:41:00,71.1,41.3,29.74,East,90,3.4,3.4,34,0.00,,---,0.00,VWS V14.01,2013-09-20 17:41:00,
2013-09-20 10:46:00,70.7,40.2,29.74,ENE,68,3.6,3.6,33,0.00,,---,1.76,VWS V14.01,2013-09-20 17:46:00,
2013-09-20 10:51:00,71.4,40.8,29.79,East,90,3.6,3.6,33,0.00,,---,1.76,VWS V14.01,2013-09-20 17:51:00,
2013-09-20 10:56:00,72.0,40.5,29.79,SSE,158,4.0,4.0,32,0.00,,---,1.76,VWS V14.01,2013-09-20 17:56:00,
2013-09-20 11:01:00,72.3,40.8,29.74,North,0,5.4,5.4,32,0.00,,---,1.76,VWS V14.01,2013-09-20 18:01:00,
2013-09-20 11:06:00,73.0,41.5,29.74,NE,45,2.5,2.5,32,0.00,,---,1.76,VWS V14.01,2013-09-20 18:06:00,
2013-09-20 11:11:00,73.2,41.6,29.74,East,90,1.6,1.6,32,0.00,,---,1.76,VWS V14.01,2013-09-20 18:11:00,
2013-09-20 11:16:00,73.6,41.1,29.76,ESE,112,3.4,3.4,31,0.00,,---,1.76,VWS V14.01,2013-09-20 18:16:00,
2013-09-20 11:21:00,73.9,40.6,29.76,East,90,4.3,4.3,30,0.00,,---,1.76,VWS V14.01,2013-09-20 18:21:00,
2013-09-20 11:26:00,73.8,41.3,29.76,East,90,4.0,4.0,31,0.00,,---,1.76,VWS V14.01,2013-09-20 18:26:00,
2013-09-20 11:31:00,73.4,41.0,29.74,East,90,4.5,4.5,31,0.00,,---,1.76,VWS V14.01,2013-09-20 18:31:00,
2013-09-20 11:36:00,73.8,41.3,29.74,South,180,2.0,2.0,31,0.00,,---,1.76,VWS V14.01,2013-09-20 18:36:00,
2013-09-20 11:41:00,74.3,41.7,29.74,East,90,2.0,2.0,31,0.00,,---,1.76,VWS V14.01,2013-09-20 18:41:00,
2013-09-20 11:46:00,74.8,41.4,29.74,NE,45,4.9,4.9,30,0.00,,---,1.76,VWS V14.01,2013-09-20 18:46:00,
2013-09-20 11:51:00,74.7,41.2,29.74,SE,135,2.2,2.2,30,0.00,,---,1.76,VWS V14.01,2013-09-20 18:51:00,
2013-09-20 11:56:00,75.6,42.0,29.74,South,180,1.6,1.6,30,0.00,,---,1.76,VWS V14.01,2013-09-20 18:56:00,
2013-09-20 12:01:00,75.7,41.3,29.74,East,90,2.0,2.0,29,0.00,,---,1.76,VWS V14.01,2013-09-20 19:01:00,
2013-09-20 12:06:00,75.7,40.3,29.74,East,90,5.8,5.8,28,0.00,,---,1.76,VWS V14.01,2013-09-20 19:06:00,
2013-09-20 12:11:00,76.1,40.7,29.74,SE,135,1.3,1.3,28,0.00,,---,1.76,VWS V14.01,2013-09-20 19:11:00,
2013-09-20 12:16:00,77.0,41.4,29.74,East,90,6.0,6.0,28,0.00,,---,1.76,VWS V14.01,2013-09-20 19:16:00,
2013-09-20 12:21:00,77.2,40.7,29.74,NE,45,2.9,2.9,27,0.00,,---,1.76,VWS V14.01,2013-09-20 19:21:00,
2013-09-20 12:26:00,77.2,39.7,29.74,ESE,112,3.4,3.4,26,0.00,,---,1.76,VWS V14.01,2013-09-20 19:26:00,
2013-09-20 12:32:00,77.7,40.1,29.71,SE,135,1.3,1.3,26,0.00,,---,1.76,VWS V14.01,2013-09-20 19:32:00,
2013-09-20 12:37:00,77.5,39.0,29.71,ESE,112,2.9,2.9,25,0.00,,---,1.76,VWS V14.01,2013-09-20 19:37:00,
2013-09-20 12:42:00,78.1,39.4,29.71,East,90,3.6,3.6,25,0.00,,---,1.76,VWS V14.01,2013-09-20 19:42:00,
2013-09-20 12:47:00,78.8,39.0,29.71,ENE,68,1.6,1.6,24,0.00,,---,1.76,VWS V14.01,2013-09-20 19:47:00,
2013-09-20 12:52:00,79.3,39.5,29.71,ENE,68,5.4,5.4,24,0.00,,---,1.76,VWS V14.01,2013-09-20 19:52:00,
2013-09-20 12:57:00,79.2,38.2,29.71,ESE,112,2.5,2.5,23,0.00,,---,1.76,VWS V14.01,2013-09-20 19:57:00,
2013-09-20 13:02:00,79.2,38.2,29.71,NNE,22,4.0,4.0,23,0.00,,---,1.76,VWS V14.01,2013-09-20 20:02:00,
2013-09-20 13:07:00,79.9,38.8,29.71,NNE,22,4.3,4.3,23,0.00,,---,1.76,VWS V14.01,2013-09-20 20:07:00,
2013-09-20 13:12:00,79.7,37.5,29.71,East,90,3.1,3.1,22,0.00,,---,1.76,VWS V14.01,2013-09-20 20:12:00,
2013-09-20 13:17:00,79.9,37.7,29.68,ENE,68,3.8,3.8,22,0.00,,---,1.76,VWS V14.01,2013-09-20 20:17:00,
2013-09-20 13:22:00,80.6,38.3,29.68,SE,135,2.5,2.5,22,0.00,,---,1.76,VWS V14.01,2013-09-20 20:22:00,
2013-09-20 13:27:00,80.8,38.4,29.68,NE,45,3.1,3.1,22,0.00,,---,1.76,VWS V14.01,2013-09-20 20:27:00,
2013-09-20 13:32:00,80.4,38.1,29.68,ENE,68,2.9,2.9,22,0.00,,---,1.76,VWS V14.01,2013-09-20 20:32:00,
2013-09-20 13:37:00,80.8,38.4,29.68,NE,45,2.5,2.5,22,0.00,,---,1.76,VWS V14.01,2013-09-20 20:37:00,
2013-09-20 13:42:00,81.3,38.9,29.68,NE,45,2.7,2.7,22,0.00,,---,1.76,VWS V14.01,2013-09-20 20:42:00,
2013-09-20 13:47:00,81.9,39.3,29.65,NE,45,2.0,2.0,22,0.00,,---,1.76,VWS V14.01,2013-09-20 20:47:00,
2013-09-20 13:52:00,82.0,38.3,29.65,NE,45,4.7,4.7,21,0.00,,---,1.76,VWS V14.01,2013-09-20 20:52:00,
2013-09-20 13:57:00,81.9,38.1,29.65,East,90,1.3,1.3,21,0.00,,---,1.76,VWS V14.01,2013-09-20 20:57:00,
2013-09-20 14:02:00,82.0,38.3,29.65,North,0,5.6,5.6,21,0.00,,---,1.76,VWS V14.01,2013-09-20 21:02:00,
2013-09-20 14:07:00,82.0,38.3,29.65,ESE,112,1.3,1.3,21,0.00,,---,1.76,VWS V14.01,2013-09-20 21:07:00,
2013-09-20 14:12:00,82.2,38.4,29.65,SE,135,2.5,2.5,21,0.00,,---,1.76,VWS V14.01,2013-09-20 21:12:00,
2013-09-20 14:17:00,82.4,38.6,29.65,East,90,5.6,5.6,21,0.00,,---,1.76,VWS V14.01,2013-09-20 21:17:00,
2013-09-20 14:22:00,82.2,38.4,29.65,North,0,3.6,3.6,21,0.00,,---,1.76,VWS V14.01,2013-09-20 21:22:00,
2013-09-20 14:27:00,82.6,37.5,29.65,NE,45,3.8,3.8,20,0.00,,---,1.76,VWS V14.01,2013-09-20 21:27:00,
2013-09-20 14:32:00,82.6,37.5,29.65,SE,135,4.0,4.0,20,0.00,,---,1.76,VWS V14.01,2013-09-20 21:32:00,
2013-09-20 14:37:00,82.4,37.3,29.65,SE,135,2.5,2.5,20,0.00,,---,1.76,VWS V14.01,2013-09-20 21:37:00,
2013-09-20 14:42:00,82.0,37.0,29.65,SSE,158,2.2,2.2,20,0.00,,---,1.76,VWS V14.01,2013-09-20 21:42:00,
2013-09-20 14:47:00,82.9,37.8,29.62,North,0,3.4,3.4,20,0.00,,---,1.76,VWS V14.01,2013-09-20 21:47:00,
2013-09-20 14:52:00,82.4,37.3,29.62,SE,135,1.6,1.6,20,0.00,,---,1.76,VWS V14.01,2013-09-20 21:52:00,
2013-09-20 14:57:00,82.0,37.0,29.62,ESE,112,3.1,3.1,20,0.00,,---,1.76,VWS V14.01,2013-09-20 21:57:00,
2013-09-20 15:02:00,82.2,37.2,29.62,NNE,22,1.3,1.3,20,0.00,,---,1.76,VWS V14.01,2013-09-20 22:02:00,
2013-09-20 15:07:00,83.8,38.5,29.62,North,0,0.0,0.0,20,0.00,,---,1.76,VWS V14.01,2013-09-20 22:07:00,
2013-09-20 15:12:00,83.5,38.2,29.62,NE,45,4.9,4.9,20,0.00,,---,1.76,VWS V14.01,2013-09-20 22:12:00,
2013-09-20 15:17:00,83.8,38.5,29.59,NE,45,4.3,4.3,20,0.00,,---,1.76,VWS V14.01,2013-09-20 22:17:00,
2013-09-20 15:22:00,83.3,38.1,29.59,SE,135,3.1,3.1,20,0.00,,---,1.76,VWS V14.01,2013-09-20 22:22:00,
2013-09-20 15:27:00,83.5,38.2,29.59,North,0,1.3,1.3,20,0.00,,---,1.76,VWS V14.01,2013-09-20 22:27:00,
2013-09-20 15:32:00,84.0,38.7,29.59,NE,45,3.6,3.6,20,0.00,,---,1.76,VWS V14.01,2013-09-20 22:32:00,
2013-09-20 15:37:00,83.5,38.2,29.59,NE,45,5.8,5.8,20,0.00,,---,1.76,VWS V14.01,2013-09-20 22:37:00,
2013-09-20 15:42:00,83.1,37.9,29.59,East,90,4.3,4.3,20,0.00,,---,1.76,VWS V14.01,2013-09-20 22:42:00,
2013-09-20 15:47:00,82.9,37.8,29.59,ESE,112,2.5,2.5,20,0.00,,---,1.76,VWS V14.01,2013-09-20 22:47:00,
2013-09-20 15:52:00,83.1,37.9,29.59,SE,135,4.7,4.7,20,0.00,,---,1.76,VWS V14.01,2013-09-20 22:52:00,
2013-09-20 15:57:00,82.9,37.8,29.59,NE,45,2.2,2.2,20,0.00,,---,1.76,VWS V14.01,2013-09-20 22:57:00,
2013-09-20 16:03:00,82.9,37.8,29.59,East,90,3.1,3.1,20,0.00,,---,1.76,VWS V14.01,2013-09-20 23:03:00,
2013-09-20 16:08:00,82.4,37.3,29.59,East,90,5.6,5.6,20,0.00,,---,1.76,VWS V14.01,2013-09-20 23:08:00,
2013-09-20 16:13:00,82.4,37.3,29.59,ENE,68,3.1,3.1,20,0.00,,---,1.76,VWS V14.01,2013-09-20 23:13:00,
2013-09-20 16:18:00,82.2,37.2,29.59,NNE,22,2.7,2.7,20,0.00,,---,1.76,VWS V14.01,2013-09-20 23:18:00,
2013-09-20 16:23:00,80.8,36.0,29.59,ESE,112,8.5,8.5,20,0.00,,---,1.76,VWS V14.01,2013-09-20 23:23:00,
2013-09-20 16:28:00,79.9,36.5,29.59,South,180,2.9,2.9,21,0.00,,---,1.76,VWS V14.01,2013-09-20 23:28:00,
2013-09-20 16:33:00,79.5,36.2,29.59,East,90,3.6,3.6,21,0.00,,---,1.76,VWS V14.01,2013-09-20 23:33:00,
2013-09-20 16:38:00,79.5,36.2,29.59,ESE,112,3.1,3.1,21,0.00,,---,1.76,VWS V14.01,2013-09-20 23:38:00,
2013-09-20 16:43:00,79.5,36.2,29.59,NNE,22,5.8,5.8,21,0.00,,---,1.76,VWS V14.01,2013-09-20 23:43:00,
2013-09-20 16:48:00,79.7,36.3,29.59,ESE,112,1.6,1.6,21,0.00,,---,1.76,VWS V14.01,2013-09-20 23:48:00,
2013-09-20 16:53:00,79.7,36.3,29.59,SE,135,2.0,2.0,21,0.00,,---,1.76,VWS V14.01,2013-09-20 23:53:00,
2013-09-20 16:58:00,79.5,36.2,29.59,NE,45,3.4,3.4,21,0.00,,---,1.76,VWS V14.01,2013-09-20 23:58:00,
2013-09-20 17:03:00,79.3,37.2,29.59,ESE,112,2.5,2.5,22,0.00,,---,1.76,VWS V14.01,2013-09-21 00:03:00,
2013-09-20 17:08:00,79.2,37.1,29.59,SSE,158,2.9,2.9,22,0.00,,---,1.76,VWS V14.01,2013-09-21 00:08:00,
2013-09-20 17:13:00,78.8,36.8,29.59,East,90,3.1,3.1,22,0.00,,---,1.76,VWS V14.01,2013-09-21 00:13:00,
2013-09-20 17:18:00,78.3,36.3,29.56,North,0,1.3,1.3,22,0.00,,---,1.76,VWS V14.01,2013-09-21 00:18:00,
2013-09-20 17:23:00,78.1,36.2,29.56,SE,135,2.7,2.7,22,0.00,,---,1.76,VWS V14.01,2013-09-21 00:23:00,
2013-09-20 17:28:00,77.5,35.7,29.56,East,90,1.6,229.4,22,0.00,,---,1.76,VWS V14.01,2013-09-21 00:28:00,
2013-09-20 17:33:00,76.8,36.2,29.56,ESE,112,5.4,5.4,23,0.00,,---,1.76,VWS V14.01,2013-09-21 00:33:00,
2013-09-20 17:38:00,76.5,36.0,29.56,East,90,5.8,5.8,23,0.00,,---,1.76,VWS V14.01,2013-09-21 00:38:00,
2013-09-20 17:43:00,75.7,35.3,29.53,SE,135,3.4,3.4,23,0.00,,---,1.76,VWS V14.01,2013-09-21 00:43:00,
2013-09-20 17:48:00,75.0,35.8,29.53,SSE,158,2.9,2.9,24,0.00,,---,1.76,VWS V14.01,2013-09-21 00:48:00,
2013-09-20 17:53:00,74.7,35.5,29.53,SE,135,3.8,3.8,24,0.00,,---,1.76,VWS V14.01,2013-09-21 00:53:00,
2013-09-20 17:58:00,74.7,36.5,29.53,South,180,2.2,2.2,25,0.00,,---,0.00,VWS V14.01,2013-09-21 00:58:00,
2013-09-20 18:03:00,74.5,36.4,29.53,East,90,3.4,3.4,25,0.00,,---,1.76,VWS V14.01,2013-09-21 01:03:00,
2013-09-20 18:08:00,74.3,36.2,29.53,SE,135,3.1,3.1,25,0.00,,---,1.76,VWS V14.01,2013-09-21 01:08:00,
2013-09-20 18:13:00,73.9,35.9,29.56,ESE,112,2.0,2.0,25,0.00,,---,1.76,VWS V14.01,2013-09-21 01:13:00,
2013-09-20 18:18:00,73.8,36.8,29.56,South,180,2.5,2.5,26,0.00,,---,1.76,VWS V14.01,2013-09-21 01:18:00,
2013-09-20 18:23:00,73.2,36.3,29.56,SE,135,2.2,2.2,26,0.00,,---,1.76,VWS V14.01,2013-09-21 01:23:00,
2013-09-20 18:28:00,73.0,37.1,29.53,East,90,2.0,2.0,27,0.00,,---,1.76,VWS V14.01,2013-09-21 01:28:00,
2013-09-20 18:33:00,72.7,37.7,29.53,ESE,112,2.9,2.9,28,0.00,,---,1.76,VWS V14.01,2013-09-21 01:33:00,
2013-09-20 18:38:00,72.5,37.6,29.53,SE,135,2.9,2.9,28,0.00,,---,1.76,VWS V14.01,2013-09-21 01:38:00,
2013-09-20 18:43:00,72.3,37.4,29.53,East,90,3.4,3.4,28,0.00,,---,1.76,VWS V14.01,2013-09-21 01:43:00,
2013-09-20 18:48:00,72.0,38.0,29.53,ESE,112,5.8,5.8,29,0.00,,---,1.76,VWS V14.01,2013-09-21 01:48:00,
2013-09-20 18:53:00,71.8,38.7,29.53,SE,135,4.3,4.3,30,0.00,,---,1.76,VWS V14.01,2013-09-21 01:53:00,
2013-09-20 18:58:00,71.8,38.7,29.53,East,90,4.3,4.3,30,0.00,,---,1.76,VWS V14.01,2013-09-21 01:58:00,
2013-09-20 19:03:00,71.4,39.2,29.53,East,90,2.5,2.5,31,0.00,,---,1.76,VWS V14.01,2013-09-21 02:03:00,
2013-09-20 19:08:00,71.2,39.9,29.53,East,90,3.6,3.6,32,0.00,,---,1.76,VWS V14.01,2013-09-21 02:08:00,
2013-09-20 19:13:00,71.1,39.7,29.53,SSW,202,4.0,4.0,32,0.00,,---,1.76,VWS V14.01,2013-09-21 02:13:00,
2013-09-20 19:18:00,70.9,39.6,29.53,SSE,158,3.8,3.8,32,0.00,,---,1.76,VWS V14.01,2013-09-21 02:18:00,
2013-09-20 19:24:00,70.5,39.3,29.53,East,90,5.8,5.8,32,0.00,,---,1.76,VWS V14.01,2013-09-21 02:24:00,
2013-09-20 19:29:00,70.5,39.3,29.56,ESE,112,2.5,2.5,32,0.00,,---,1.76,VWS V14.01,2013-09-21 02:29:00,
2013-09-20 19:34:00,70.3,39.1,29.56,SE,135,2.2,2.2,32,0.00,,---,1.76,VWS V14.01,2013-09-21 02:34:00,
2013-09-20 19:39:00,70.0,38.8,29.56,East,90,2.5,2.5,32,0.00,,---,1.76,VWS V14.01,2013-09-21 02:39:00,
2013-09-20 19:44:00,69.4,38.3,29.53,SSE,158,2.5,2.5,32,0.00,,---,1.76,VWS V14.01,2013-09-21 02:44:00,
2013-09-20 19:49:00,69.3,38.2,29.53,NW,315,2.0,2.0,32,0.00,,---,1.76,VWS V14.01,2013-09-21 02:49:00,
2013-09-20 19:54:00,68.9,37.8,29.53,East,90,3.4,3.4,32,0.00,,---,1.76,VWS V14.01,2013-09-21 02:54:00,
2013-09-20 19:59:00,68.7,38.5,29.53,NE,45,1.6,1.6,33,0.00,,---,1.76,VWS V14.01,2013-09-21 02:59:00,
2013-09-20 20:04:00,68.4,38.2,29.53,SSE,158,3.1,3.1,33,0.00,,---,1.76,VWS V14.01,2013-09-21 03:04:00,
2013-09-20 20:09:00,68.2,38.0,29.53,East,90,1.6,1.6,33,0.00,,---,1.76,VWS V14.01,2013-09-21 03:09:00,
2013-09-20 20:14:00,67.5,37.4,29.56,NE,45,2.7,2.7,33,0.00,,---,1.76,VWS V14.01,2013-09-21 03:14:00,
2013-09-20 20:19:00,67.3,37.2,29.56,NE,45,2.0,2.0,33,0.00,,---,1.76,VWS V14.01,2013-09-21 03:19:00,
2013-09-20 20:24:00,66.9,37.7,29.56,SE,135,0.0,0.0,34,0.00,,---,1.76,VWS V14.01,2013-09-21 03:24:00,
2013-09-20 20:29:00,66.4,37.2,29.53,South,180,3.4,3.4,34,0.00,,---,1.76,VWS V14.01,2013-09-21 03:29:00,
2013-09-20 20:34:00,66.0,36.9,29.53,West,270,0.0,0.0,34,0.00,,---,1.76,VWS V14.01,2013-09-21 03:34:00,
2013-09-20 20:39:00,65.8,37.5,29.53,NW,315,0.0,0.0,35,0.00,,---,1.76,VWS V14.01,2013-09-21 03:39:00,
2013-09-20 20:44:00,65.5,37.1,29.53,NE,45,2.0,2.0,35,0.00,,---,1.76,VWS V14.01,2013-09-21 03:44:00,
2013-09-20 20:49:00,65.3,37.0,29.53,NE,45,1.1,1.1,35,0.00,,---,1.76,VWS V14.01,2013-09-21 03:49:00,
2013-09-20 20:54:00,65.1,36.8,29.53,SSE,158,0.0,0.0,35,0.00,,---,1.76,VWS V14.01,2013-09-21 03:54:00,
2013-09-20 20:59:00,64.9,37.4,29.53,SSW,202,1.6,1.6,36,0.00,,---,1.76,VWS V14.01,2013-09-21 03:59:00,
2013-09-20 21:01:00,64.8,37.2,29.56,ESE,112,3.1,3.1,36,0.00,,---,1.76,VWS V14.01,2013-09-21 04:01:00,
2013-09-20 21:02:00,64.9,37.4,29.56,South,180,2.2,2.2,36,0.00,,---,1.76,VWS V14.01,2013-09-21 04:02:00,
2013-09-20 21:03:00,64.9,37.4,29.56,South,180,2.2,2.2,36,0.00,,---,1.76,VWS V14.01,2013-09-21 04:03:00,
2013-09-20 21:06:00,64.9,37.4,29.56,South,180,2.5,2.5,36,0.00,,---,1.76,VWS V14.01,2013-09-21 04:06:00,
2013-09-20 21:11:00,65.1,38.2,29.56,South,180,3.1,3.1,37,0.00,,---,1.76,VWS V14.01,2013-09-21 04:11:00,
2013-09-20 21:14:00,65.1,38.2,29.53,SSE,158,3.6,3.6,37,0.00,,---,1.76,VWS V14.01,2013-09-21 04:14:00,
2013-09-20 21:19:00,65.1,38.2,29.53,South,180,1.6,1.6,37,0.00,,---,1.76,VWS V14.01,2013-09-21 04:19:00,
2013-09-20 21:24:00,64.8,37.9,29.53,South,180,2.7,2.7,37,0.00,,---,1.76,VWS V14.01,2013-09-21 04:24:00,
2013-09-20 21:29:00,64.8,37.9,29.50,South,180,1.1,1.1,37,0.00,,---,1.76,VWS V14.01,2013-09-21 04:29:00,
2013-09-20 21:34:00,64.6,37.8,29.50,SSE,158,0.0,0.0,37,0.00,,---,1.76,VWS V14.01,2013-09-21 04:34:00,
2013-09-20 21:39:00,64.2,37.4,29.50,SSW,202,0.0,0.0,37,0.00,,---,1.76,VWS V14.01,2013-09-21 04:39:00,
2013-09-20 21:44:00,63.7,37.0,29.53,SSW,202,0.0,0.0,37,0.00,,---,1.76,VWS V14.01,2013-09-21 04:44:00,
2013-09-20 21:49:00,63.3,36.6,29.53,SW,225,0.9,0.9,37,0.00,,---,1.76,VWS V14.01,2013-09-21 04:49:00,
2013-09-20 21:54:00,63.5,37.5,29.53,SSW,202,1.1,1.1,38,0.00,,---,1.76,VWS V14.01,2013-09-21 04:54:00,
2013-09-20 22:00:00,63.3,37.3,29.50,South,180,1.6,1.6,38,0.00,,---,1.76,VWS V14.01,2013-09-21 05:00:00,
2013-09-20 22:05:00,63.3,38.0,29.50,SE,135,2.9,2.9,39,0.00,,---,1.76,VWS V14.01,2013-09-21 05:05:00,
2013-09-20 22:10:00,63.7,37.6,29.50,South,180,0.0,0.0,38,0.00,,---,1.76,VWS V14.01,2013-09-21 05:10:00,
2013-09-20 22:15:00,63.7,37.6,29.53,SSE,158,1.6,1.6,38,0.00,,---,1.76,VWS V14.01,2013-09-21 05:15:00,
2013-09-20 22:20:00,63.5,37.5,29.53,South,180,1.1,1.1,38,0.00,,---,1.76,VWS V14.01,2013-09-21 05:20:00,
2013-09-20 22:25:00,63.5,37.5,29.53,South,180,2.0,2.0,38,0.00,,---,1.76,VWS V14.01,2013-09-21 05:25:00,
2013-09-20 22:30:00,63.1,37.1,29.50,South,180,1.6,1.6,38,0.00,,---,1.76,VWS V14.01,2013-09-21 05:30:00,
2013-09-20 22:35:00,63.1,37.1,29.50,South,180,0.0,0.0,38,0.00,,---,1.76,VWS V14.01,2013-09-21 05:35:00,
2013-09-20 22:40:00,63.0,37.0,29.50,ESE,112,2.5,2.5,38,0.00,,---,1.76,VWS V14.01,2013-09-21 05:40:00,
2013-09-20 22:45:00,62.8,37.5,29.53,SSE,158,0.0,0.0,39,0.00,,---,1.76,VWS V14.01,2013-09-21 05:45:00,
2013-09-20 22:50:00,62.8,37.5,29.53,South,180,1.1,1.1,39,0.00,,---,1.76,VWS V14.01,2013-09-21 05:50:00,
2013-09-20 22:55:00,62.8,37.5,29.53,SSE,158,2.9,2.9,39,0.00,,---,1.76,VWS V14.01,2013-09-21 05:55:00,
2013-09-20 23:00:00,63.0,38.3,29.53,SE,135,3.6,3.6,40,0.00,,---,1.76,VWS V14.01,2013-09-21 06:00:00,
2013-09-20 23:05:00,62.6,38.0,29.53,South,180,0.9,0.9,40,0.00,,---,1.76,VWS V14.01,2013-09-21 06:05:00,
2013-09-20 23:10:00,62.2,37.6,29.53,SSW,202,0.0,0.0,40,0.00,,---,1.76,VWS V14.01,2013-09-21 06:10:00,
2013-09-20 23:15:00,62.6,38.6,29.50,SE,135,2.7,2.7,41,0.00,,---,1.76,VWS V14.01,2013-09-21 06:15:00,
2013-09-20 23:20:00,62.4,39.0,29.50,SE,135,5.4,5.4,42,0.00,,---,1.76,VWS V14.01,2013-09-21 06:20:00,
2013-09-20 23:25:00,62.6,38.6,29.50,SSE,158,1.3,1.3,41,0.00,,---,1.76,VWS V14.01,2013-09-21 06:25:00,
2013-09-20 23:30:00,62.4,39.0,29.53,SE,135,2.5,2.5,42,0.00,,---,1.76,VWS V14.01,2013-09-21 06:30:00,
2013-09-20 23:35:00,62.2,39.5,29.53,ESE,112,4.5,4.5,43,0.00,,---,1.76,VWS V14.01,2013-09-21 06:35:00,
2013-09-20 23:40:00,62.4,39.0,29.53,SE,135,0.9,0.9,42,0.00,,---,1.76,VWS V14.01,2013-09-21 06:40:00,
2013-09-20 23:45:00,61.9,38.6,29.53,SE,135,0.0,0.0,42,0.00,,---,1.76,VWS V14.01,2013-09-21 06:45:00,
2013-09-20 23:50:00,61.3,38.1,29.53,SW,225,2.0,2.0,42,0.00,,---,1.76,VWS V14.01,2013-09-21 06:50:00,
2013-09-20 23:55:00,61.2,38.5,29.53,SSW,202,0.0,0.0,43,0.00,,---,1.76,VWS V14.01,2013-09-21 06:55:00,